sensor_id;sensor_type;location;lat;lon;timestamp;pressure;altitude;pressure_sealevel;temperature;humidity
34370;BME280;20635;55.812;37.560;2022-08-21T00:00:31;100380.72;;;25.72;38.42
34370;BME280;20635;55.812;37.560;2022-08-21T00:03:00;100381.88;;;25.71;38.54
34370;BME280;20635;55.812;37.560;2022-08-21T00:05:27;100368.16;;;25.70;38.60
34370;BME280;20635;55.812;37.560;2022-08-21T00:07:53;100376.56;;;25.70;38.68
34370;BME280;20635;55.812;37.560;2022-08-21T00:10:20;100369.28;;;25.69;38.72
34370;BME280;20635;55.812;37.560;2022-08-21T00:12:47;100373.25;;;25.68;38.70
34370;BME280;20635;55.812;37.560;2022-08-21T00:15:17;100376.06;;;25.68;38.52
34370;BME280;20635;55.812;37.560;2022-08-21T00:17:44;100369.63;;;25.67;38.51
34370;BME280;20635;55.812;37.560;2022-08-21T00:20:11;100372.44;;;25.67;38.53
34370;BME280;20635;55.812;37.560;2022-08-21T00:22:38;100371.59;;;25.67;38.58
34370;BME280;20635;55.812;37.560;2022-08-21T00:25:05;100373.59;;;25.66;38.57
34370;BME280;20635;55.812;37.560;2022-08-21T00:27:32;100374.72;;;25.65;38.58
34370;BME280;20635;55.812;37.560;2022-08-21T00:29:59;100366.63;;;25.64;38.58
34370;BME280;20635;55.812;37.560;2022-08-21T00:32:26;100364.16;;;25.62;38.55
34370;BME280;20635;55.812;37.560;2022-08-21T00:34:52;100360.47;;;25.62;38.54
34370;BME280;20635;55.812;37.560;2022-08-21T00:37:19;100361.63;;;25.61;38.62
34370;BME280;20635;55.812;37.560;2022-08-21T00:39:45;100364.44;;;25.61;38.65
34370;BME280;20635;55.812;37.560;2022-08-21T00:42:12;100362.78;;;25.60;38.69
34370;BME280;20635;55.812;37.560;2022-08-21T00:44:45;100360.81;;;25.60;38.84
34370;BME280;20635;55.812;37.560;2022-08-21T00:47:11;100360.81;;;25.60;38.85
34370;BME280;20635;55.812;37.560;2022-08-21T00:49:37;100370.38;;;25.59;38.71
34370;BME280;20635;55.812;37.560;2022-08-21T00:52:06;100359.47;;;25.58;38.69
34370;BME280;20635;55.812;37.560;2022-08-21T00:54:33;100355.00;;;25.56;38.71
34370;BME280;20635;55.812;37.560;2022-08-21T00:57:04;100356.97;;;25.56;38.53
34370;BME280;20635;55.812;37.560;2022-08-21T00:59:35;100355.31;;;25.55;38.71
34370;BME280;20635;55.812;37.560;2022-08-21T01:02:04;100355.31;;;25.55;38.61
34370;BME280;20635;55.812;37.560;2022-08-21T01:04:30;100355.66;;;25.53;38.42
34370;BME280;20635;55.812;37.560;2022-08-21T01:06:56;100362.09;;;25.54;38.59
34370;BME280;20635;55.812;37.560;2022-08-21T01:09:21;100356.78;;;25.52;38.53
34370;BME280;20635;55.812;37.560;2022-08-21T01:11:48;100356.78;;;25.52;38.43
34370;BME280;20635;55.812;37.560;2022-08-21T01:14:14;100361.06;;;25.50;38.57
34370;BME280;20635;55.812;37.560;2022-08-21T01:16:43;100362.38;;;25.52;38.84
34370;BME280;20635;55.812;37.560;2022-08-21T01:19:10;100353.97;;;25.52;38.87
34370;BME280;20635;55.812;37.560;2022-08-21T01:21:36;100366.06;;;25.53;38.97
34370;BME280;20635;55.812;37.560;2022-08-21T01:24:02;100351.38;;;25.56;39.07
34370;BME280;20635;55.812;37.560;2022-08-21T01:26:31;100360.31;;;25.58;39.11
34370;BME280;20635;55.812;37.560;2022-08-21T01:29:02;100361.97;;;25.59;39.32
34370;BME280;20635;55.812;37.560;2022-08-21T01:31:33;100360.81;;;25.60;39.40
34370;BME280;20635;55.812;37.560;2022-08-21T01:34:00;100360.47;;;25.62;39.43
34370;BME280;20635;55.812;37.560;2022-08-21T01:36:26;100352.91;;;25.62;39.75
34370;BME280;20635;55.812;37.560;2022-08-21T01:38:52;100352.91;;;25.62;39.79
34370;BME280;20635;55.812;37.560;2022-08-21T01:41:18;100358.19;;;25.64;40.06
34370;BME280;20635;55.812;37.560;2022-08-21T01:43:44;100355.41;;;25.64;39.91
34370;BME280;20635;55.812;37.560;2022-08-21T01:46:11;100352.25;;;25.65;40.15
34370;BME280;20635;55.812;37.560;2022-08-21T01:48:37;100356.75;;;25.66;40.20
34370;BME280;20635;55.812;37.560;2022-08-21T01:51:05;100359.22;;;25.68;40.15
34370;BME280;20635;55.812;37.560;2022-08-21T01:53:31;100353.09;;;25.66;40.18
34370;BME280;20635;55.812;37.560;2022-08-21T01:55:59;100356.41;;;25.68;40.43
34370;BME280;20635;55.812;37.560;2022-08-21T01:58:25;100359.22;;;25.68;40.33
34370;BME280;20635;55.812;37.560;2022-08-21T02:00:51;100347.66;;;25.69;40.59
34370;BME280;20635;55.812;37.560;2022-08-21T02:03:19;100354.09;;;25.70;40.55
34370;BME280;20635;55.812;37.560;2022-08-21T02:05:45;100350.47;;;25.69;40.67
34370;BME280;20635;55.812;37.560;2022-08-21T02:08:11;100349.31;;;25.70;40.50
34370;BME280;20635;55.812;37.560;2022-08-21T02:10:37;100351.81;;;25.72;40.77
34370;BME280;20635;55.812;37.560;2022-08-21T02:13:03;100360.25;;;25.72;40.76
34370;BME280;20635;55.812;37.560;2022-08-21T02:15:29;100370.00;;;25.74;40.73
34370;BME280;20635;55.812;37.560;2022-08-21T02:17:58;100366.91;;;25.76;40.58
34370;BME280;20635;55.812;37.560;2022-08-21T02:20:44;100363.78;;;25.77;41.02
34370;BME280;20635;55.812;37.560;2022-08-21T02:23:11;100361.81;;;25.78;40.84
34370;BME280;20635;55.812;37.560;2022-08-21T02:25:39;100366.25;;;25.79;41.02
34370;BME280;20635;55.812;37.560;2022-08-21T02:28:08;100376.84;;;25.82;41.12
34370;BME280;20635;55.812;37.560;2022-08-21T02:30:38;100371.25;;;25.82;41.33
34370;BME280;20635;55.812;37.560;2022-08-21T02:33:05;100368.44;;;25.82;41.42
34370;BME280;20635;55.812;37.560;2022-08-21T02:35:31;100369.78;;;25.85;41.25
34370;BME280;20635;55.812;37.560;2022-08-21T02:38:00;100370.63;;;25.85;41.33
34370;BME280;20635;55.812;37.560;2022-08-21T02:40:29;100370.63;;;25.85;41.29
34370;BME280;20635;55.812;37.560;2022-08-21T02:42:57;100363.84;;;25.86;41.46
34370;BME280;20635;55.812;37.560;2022-08-21T02:45:24;100363.84;;;25.86;41.34
34370;BME280;20635;55.812;37.560;2022-08-21T02:47:55;100366.31;;;25.88;41.09
34370;BME280;20635;55.812;37.560;2022-08-21T02:50:25;100375.56;;;25.88;41.09
34370;BME280;20635;55.812;37.560;2022-08-21T02:52:51;100373.91;;;25.87;41.00
34370;BME280;20635;55.812;37.560;2022-08-21T02:55:19;100374.75;;;25.88;40.94
34370;BME280;20635;55.812;37.560;2022-08-21T02:57:46;100380.34;;;25.88;40.85
34370;BME280;20635;55.812;37.560;2022-08-21T03:00:13;100369.13;;;25.88;40.89
34370;BME280;20635;55.812;37.560;2022-08-21T03:02:39;100369.97;;;25.88;41.17
34370;BME280;20635;55.812;37.560;2022-08-21T03:05:07;100374.44;;;25.89;41.19
34370;BME280;20635;55.812;37.560;2022-08-21T03:07:33;100369.66;;;25.90;41.03
34370;BME280;20635;55.812;37.560;2022-08-21T03:10:00;100373.59;;;25.89;41.02
34370;BME280;20635;55.812;37.560;2022-08-21T03:12:26;100366.84;;;25.90;41.03
34370;BME280;20635;55.812;37.560;2022-08-21T03:14:52;100366.84;;;25.90;41.18
34370;BME280;20635;55.812;37.560;2022-08-21T03:17:18;100374.13;;;25.91;41.15
34370;BME280;20635;55.812;37.560;2022-08-21T03:19:43;100372.47;;;25.90;41.05
34370;BME280;20635;55.812;37.560;2022-08-21T03:22:09;100379.72;;;25.91;41.18
34370;BME280;20635;55.812;37.560;2022-08-21T03:24:35;100374.13;;;25.91;41.21
34370;BME280;20635;55.812;37.560;2022-08-21T03:27:01;100381.38;;;25.92;41.10
34370;BME280;20635;55.812;37.560;2022-08-21T03:29:27;100385.34;;;25.91;41.02
34370;BME280;20635;55.812;37.560;2022-08-21T03:31:53;100387.81;;;25.92;41.07
34370;BME280;20635;55.812;37.560;2022-08-21T03:34:20;100376.59;;;25.92;41.21
34370;BME280;20635;55.812;37.560;2022-08-21T03:36:47;100381.06;;;25.93;41.18
34370;BME280;20635;55.812;37.560;2022-08-21T03:39:13;100388.34;;;25.94;41.19
34370;BME280;20635;55.812;37.560;2022-08-21T03:41:39;100389.47;;;25.93;40.92
34370;BME280;20635;55.812;37.560;2022-08-21T03:44:05;100389.19;;;25.95;40.97
34370;BME280;20635;55.812;37.560;2022-08-21T03:46:30;100390.00;;;25.95;41.16
34370;BME280;20635;55.812;37.560;2022-08-21T03:48:57;100384.38;;;25.95;41.14
34370;BME280;20635;55.812;37.560;2022-08-21T03:51:23;100385.22;;;25.96;41.34
34370;BME280;20635;55.812;37.560;2022-08-21T03:53:52;100381.25;;;25.97;41.40
34370;BME280;20635;55.812;37.560;2022-08-21T03:56:18;100380.09;;;25.98;41.30
34370;BME280;20635;55.812;37.560;2022-08-21T03:58:44;100380.94;;;25.98;41.07
34370;BME280;20635;55.812;37.560;2022-08-21T04:01:10;100376.97;;;25.99;41.19
34370;BME280;20635;55.812;37.560;2022-08-21T04:03:39;100378.13;;;25.98;40.91
34370;BME280;20635;55.812;37.560;2022-08-21T04:06:05;100388.22;;;25.99;41.00
34370;BME280;20635;55.812;37.560;2022-08-21T04:08:31;100387.06;;;26.00;40.98
34370;BME280;20635;55.812;37.560;2022-08-21T04:10:58;100381.44;;;26.00;40.97
34370;BME280;20635;55.812;37.560;2022-08-21T04:13:24;100377.47;;;26.01;40.70
34370;BME280;20635;55.812;37.560;2022-08-21T04:15:52;100380.28;;;26.01;40.87
34370;BME280;20635;55.812;37.560;2022-08-21T04:18:17;100374.66;;;26.01;40.80
34370;BME280;20635;55.812;37.560;2022-08-21T04:20:45;100378.81;;;26.04;40.64
34370;BME280;20635;55.812;37.560;2022-08-21T04:23:12;100378.00;;;26.03;40.68
34370;BME280;20635;55.812;37.560;2022-08-21T04:25:38;100376.31;;;26.02;40.76
34370;BME280;20635;55.812;37.560;2022-08-21T04:28:04;100378.81;;;26.04;40.81
34370;BME280;20635;55.812;37.560;2022-08-21T04:30:30;100383.28;;;26.05;40.72
34370;BME280;20635;55.812;37.560;2022-08-21T04:32:58;100383.28;;;26.05;41.12
34370;BME280;20635;55.812;37.560;2022-08-21T04:35:26;100386.91;;;26.05;41.04
34370;BME280;20635;55.812;37.560;2022-08-21T04:37:53;100373.69;;;26.06;41.09
34370;BME280;20635;55.812;37.560;2022-08-21T04:40:20;100384.63;;;26.08;41.17
34370;BME280;20635;55.812;37.560;2022-08-21T04:42:55;100385.13;;;26.10;41.26
34370;BME280;20635;55.812;37.560;2022-08-21T04:45:40;100393.56;;;26.10;41.02
34370;BME280;20635;55.812;37.560;2022-08-21T04:48:11;100398.34;;;26.09;41.04
34370;BME280;20635;55.812;37.560;2022-08-21T04:53:11;100395.06;;;26.16;40.97
34370;BME280;20635;55.812;37.560;2022-08-21T04:55:39;100396.91;;;26.12;41.14
34370;BME280;20635;55.812;37.560;2022-08-21T04:58:07;100391.28;;;26.12;40.87
34370;BME280;20635;55.812;37.560;2022-08-21T05:00:34;100396.38;;;26.10;41.12
34370;BME280;20635;55.812;37.560;2022-08-21T05:03:01;100400.81;;;26.11;40.89
34370;BME280;20635;55.812;37.560;2022-08-21T05:05:28;100390.75;;;26.10;40.86
34370;BME280;20635;55.812;37.560;2022-08-21T05:07:55;100385.97;;;26.10;40.80
34370;BME280;20635;55.812;37.560;2022-08-21T05:10:22;100389.59;;;26.11;40.84
34370;BME280;20635;55.812;37.560;2022-08-21T05:12:48;100392.09;;;26.12;41.08
34370;BME280;20635;55.812;37.560;2022-08-21T05:15:15;100385.66;;;26.12;40.96
34370;BME280;20635;55.812;37.560;2022-08-21T05:17:42;100390.94;;;26.13;40.60
34370;BME280;20635;55.812;37.560;2022-08-21T05:20:11;100376.91;;;26.13;40.83
34370;BME280;20635;55.812;37.560;2022-08-21T05:22:38;100376.91;;;26.13;40.64
34370;BME280;20635;55.812;37.560;2022-08-21T05:25:05;100372.09;;;26.14;40.89
34370;BME280;20635;55.812;37.560;2022-08-21T05:27:31;100378.56;;;26.14;40.75
34370;BME280;20635;55.812;37.560;2022-08-21T05:29:57;100374.91;;;26.14;40.66
34370;BME280;20635;55.812;37.560;2022-08-21T05:32:23;100379.38;;;26.15;40.66
34370;BME280;20635;55.812;37.560;2022-08-21T05:34:50;100378.56;;;26.14;40.23
34370;BME280;20635;55.812;37.560;2022-08-21T05:37:16;100383.84;;;26.16;40.73
34370;BME280;20635;55.812;37.560;2022-08-21T05:39:42;100375.41;;;26.16;40.82
34370;BME280;20635;55.812;37.560;2022-08-21T05:42:08;100371.47;;;26.17;40.78
34370;BME280;20635;55.812;37.560;2022-08-21T05:44:33;100373.94;;;26.18;40.83
34370;BME280;20635;55.812;37.560;2022-08-21T05:47:07;100383.72;;;26.21;40.77
34370;BME280;20635;55.812;37.560;2022-08-21T05:49:34;100374.78;;;26.19;40.89
34370;BME280;20635;55.812;37.560;2022-08-21T05:52:01;100373.63;;;26.20;41.19
34370;BME280;20635;55.812;37.560;2022-08-21T05:54:27;100373.63;;;26.20;41.36
34370;BME280;20635;55.812;37.560;2022-08-21T05:56:53;100373.31;;;26.21;41.24
34370;BME280;20635;55.812;37.560;2022-08-21T05:59:19;100372.16;;;26.22;41.22
34370;BME280;20635;55.812;37.560;2022-08-21T06:01:46;100371.34;;;26.22;40.77
34370;BME280;20635;55.812;37.560;2022-08-21T06:04:12;100371.00;;;26.23;40.76
34370;BME280;20635;55.812;37.560;2022-08-21T06:06:38;100375.47;;;26.24;40.59
34370;BME280;20635;55.812;37.560;2022-08-21T06:09:05;100373.81;;;26.23;40.73
34370;BME280;20635;55.812;37.560;2022-08-21T06:11:32;100376.63;;;26.23;40.59
34370;BME280;20635;55.812;37.560;2022-08-21T06:13:58;100361.75;;;26.23;40.53
34370;BME280;20635;55.812;37.560;2022-08-21T06:16:25;100358.94;;;26.23;40.92
34370;BME280;20635;55.812;37.560;2022-08-21T06:18:51;100360.59;;;26.24;40.67
34370;BME280;20635;55.812;37.560;2022-08-21T06:21:19;100356.13;;;26.23;40.62
34370;BME280;20635;55.812;37.560;2022-08-21T06:23:45;100359.75;;;26.23;40.60
34370;BME280;20635;55.812;37.560;2022-08-21T06:26:13;100360.59;;;26.24;40.73
34370;BME280;20635;55.812;37.560;2022-08-21T06:28:40;100356.63;;;26.25;40.95
34370;BME280;20635;55.812;37.560;2022-08-21T06:31:13;100354.34;;;26.27;41.28
34370;BME280;20635;55.812;37.560;2022-08-21T06:33:40;100349.53;;;26.27;40.65
34370;BME280;20635;55.812;37.560;2022-08-21T06:36:06;100348.72;;;26.27;40.89
34370;BME280;20635;55.812;37.560;2022-08-21T06:38:32;100345.91;;;26.27;40.78
34370;BME280;20635;55.812;37.560;2022-08-21T06:40:58;100347.06;;;26.26;40.96
34370;BME280;20635;55.812;37.560;2022-08-21T06:43:24;100346.25;;;26.25;41.19
34370;BME280;20635;55.812;37.560;2022-08-21T06:45:50;100343.72;;;26.24;41.60
34370;BME280;20635;55.812;37.560;2022-08-21T06:48:17;100342.25;;;26.26;42.29
34370;BME280;20635;55.812;37.560;2022-08-21T06:50:43;100338.31;;;26.27;42.58
34370;BME280;20635;55.812;37.560;2022-08-21T06:53:13;100343.91;;;26.27;43.26
34370;BME280;20635;55.812;37.560;2022-08-21T06:55:39;100339.13;;;26.28;43.53
34370;BME280;20635;55.812;37.560;2022-08-21T06:58:09;100333.50;;;26.28;44.12
34370;BME280;20635;55.812;37.560;2022-08-21T07:00:39;100335.16;;;26.29;44.40
34370;BME280;20635;55.812;37.560;2022-08-21T07:03:05;100341.94;;;26.28;44.60
34370;BME280;20635;55.812;37.560;2022-08-21T07:05:31;100337.97;;;26.29;44.59
34370;BME280;20635;55.812;37.560;2022-08-21T07:07:58;100334.31;;;26.28;44.53
34370;BME280;20635;55.812;37.560;2022-08-21T07:10:25;100338.78;;;26.29;44.52
34370;BME280;20635;55.812;37.560;2022-08-21T07:12:51;100332.34;;;26.29;44.39
34370;BME280;20635;55.812;37.560;2022-08-21T07:15:18;100335.16;;;26.29;44.16
34370;BME280;20635;55.812;37.560;2022-08-21T07:17:43;100334.03;;;26.30;44.00
34370;BME280;20635;55.812;37.560;2022-08-21T07:20:09;100334.03;;;26.30;43.87
34370;BME280;20635;55.812;37.560;2022-08-21T07:22:36;100326.72;;;26.29;43.83
34370;BME280;20635;55.812;37.560;2022-08-21T07:25:05;100327.56;;;26.29;43.25
34370;BME280;20635;55.812;37.560;2022-08-21T07:27:31;100330.38;;;26.29;43.31
34370;BME280;20635;55.812;37.560;2022-08-21T07:29:57;100323.91;;;26.29;42.87
34370;BME280;20635;55.812;37.560;2022-08-21T07:32:23;100330.38;;;26.29;42.68
34370;BME280;20635;55.812;37.560;2022-08-21T07:34:49;100319.97;;;26.30;42.73
34370;BME280;20635;55.812;37.560;2022-08-21T07:37:15;100323.91;;;26.29;42.68
34370;BME280;20635;55.812;37.560;2022-08-21T07:39:41;100321.94;;;26.29;42.51
34370;BME280;20635;55.812;37.560;2022-08-21T07:42:08;100321.94;;;26.29;42.53
34370;BME280;20635;55.812;37.560;2022-08-21T07:44:35;100320.28;;;26.28;42.35
34370;BME280;20635;55.812;37.560;2022-08-21T07:47:01;100326.72;;;26.29;42.42
34370;BME280;20635;55.812;37.560;2022-08-21T07:49:27;100333.50;;;26.28;42.16
34370;BME280;20635;55.812;37.560;2022-08-21T07:51:53;100319.47;;;26.28;42.10
34370;BME280;20635;55.812;37.560;2022-08-21T07:54:20;100328.72;;;26.28;42.23
34370;BME280;20635;55.812;37.560;2022-08-21T07:56:46;100322.25;;;26.28;41.85
34370;BME280;20635;55.812;37.560;2022-08-21T07:59:12;100323.09;;;26.28;41.84
34370;BME280;20635;55.812;37.560;2022-08-21T08:01:37;100322.25;;;26.28;41.78
34370;BME280;20635;55.812;37.560;2022-08-21T08:04:03;100326.25;;;26.27;41.66
34370;BME280;20635;55.812;37.560;2022-08-21T08:06:30;100324.59;;;26.26;40.57
34370;BME280;20635;55.812;37.560;2022-08-21T08:08:56;100324.59;;;26.26;40.01
34370;BME280;20635;55.812;37.560;2022-08-21T08:11:22;100314.47;;;26.25;39.89
34370;BME280;20635;55.812;37.560;2022-08-21T08:13:50;100307.22;;;26.24;39.80
34370;BME280;20635;55.812;37.560;2022-08-21T08:16:17;100306.06;;;26.25;39.20
34370;BME280;20635;55.812;37.560;2022-08-21T08:18:44;100310.00;;;26.24;38.76
34370;BME280;20635;55.812;37.560;2022-08-21T08:21:14;100296.50;;;26.26;38.74
34370;BME280;20635;55.812;37.560;2022-08-21T08:23:40;100298.78;;;26.24;38.75
34370;BME280;20635;55.812;37.560;2022-08-21T08:26:06;100292.53;;;26.27;38.81
34370;BME280;20635;55.812;37.560;2022-08-21T08:28:33;100291.69;;;26.26;39.19
34370;BME280;20635;55.812;37.560;2022-08-21T08:31:00;100289.38;;;26.28;39.09
34370;BME280;20635;55.812;37.560;2022-08-21T08:33:26;100282.94;;;26.28;39.17
34370;BME280;20635;55.812;37.560;2022-08-21T08:35:53;100282.94;;;26.28;39.96
34370;BME280;20635;55.812;37.560;2022-08-21T08:38:21;100280.66;;;26.30;40.68
34370;BME280;20635;55.812;37.560;2022-08-21T08:41:19;100281.63;;;26.34;41.00
34370;BME280;20635;55.812;37.560;2022-08-21T08:43:53;100276.00;;;26.34;41.73
34370;BME280;20635;55.812;37.560;2022-08-21T08:46:43;100275.69;;;26.36;41.59
34370;BME280;20635;55.812;37.560;2022-08-21T08:49:23;100272.06;;;26.35;41.72
34370;BME280;20635;55.812;37.560;2022-08-21T08:52:00;100272.06;;;26.35;41.95
34370;BME280;20635;55.812;37.560;2022-08-21T08:54:39;100266.94;;;26.37;41.61
34370;BME280;20635;55.812;37.560;2022-08-21T08:57:10;100265.28;;;26.36;41.45
34370;BME280;20635;55.812;37.560;2022-08-21T08:59:42;100258.50;;;26.37;41.59
34370;BME280;20635;55.812;37.560;2022-08-21T09:02:11;100279.81;;;26.38;41.82
34370;BME280;20635;55.812;37.560;2022-08-21T09:04:38;100276.69;;;26.40;42.22
34370;BME280;20635;55.812;37.560;2022-08-21T09:07:08;100275.03;;;26.39;42.21
34370;BME280;20635;55.812;37.560;2022-08-21T09:12:44;100265.66;;;26.43;42.66
34370;BME280;20635;55.812;37.560;2022-08-21T09:18:16;100274.25;;;26.47;43.22
34370;BME280;20635;55.812;37.560;2022-08-21T09:21:00;100278.41;;;26.49;43.42
34370;BME280;20635;55.812;37.560;2022-08-21T09:26:19;100274.44;;;26.50;44.22
34370;BME280;20635;55.812;37.560;2022-08-21T09:28:52;100271.28;;;26.52;45.09
34370;BME280;20635;55.812;37.560;2022-08-21T09:31:36;100263.03;;;26.55;45.15
34370;BME280;20635;55.812;37.560;2022-08-21T09:34:10;100260.06;;;26.52;46.00
34370;BME280;20635;55.812;37.560;2022-08-21T09:36:47;100265.50;;;26.57;45.29
34370;BME280;20635;55.812;37.560;2022-08-21T09:39:31;100273.94;;;26.57;45.57
34370;BME280;20635;55.812;37.560;2022-08-21T09:42:06;100259.91;;;26.57;45.14
34370;BME280;20635;55.812;37.560;2022-08-21T09:44:36;100263.56;;;26.58;44.19
34370;BME280;20635;55.812;37.560;2022-08-21T09:47:10;100255.63;;;26.60;44.18
34370;BME280;20635;55.812;37.560;2022-08-21T09:49:40;100261.22;;;26.60;44.12
34370;BME280;20635;55.812;37.560;2022-08-21T09:52:19;100257.44;;;26.64;43.88
34370;BME280;20635;55.812;37.560;2022-08-21T09:54:51;100252.66;;;26.65;43.87
34370;BME280;20635;55.812;37.560;2022-08-21T09:57:23;100255.97;;;26.67;43.11
34370;BME280;20635;55.812;37.560;2022-08-21T10:00:26;100258.44;;;26.68;42.68
34370;BME280;20635;55.812;37.560;2022-08-21T10:02:55;100271.69;;;26.68;42.12
34370;BME280;20635;55.812;37.560;2022-08-21T10:05:32;100260.78;;;26.66;42.08
34370;BME280;20635;55.812;37.560;2022-08-21T10:08:00;100267.22;;;26.67;41.28
34370;BME280;20635;55.812;37.560;2022-08-21T10:10:29;100268.03;;;26.67;41.51
34370;BME280;20635;55.812;37.560;2022-08-21T10:18:41;100251.84;;;26.73;40.30
34370;BME280;20635;55.812;37.560;2022-08-21T10:40:28;100238.78;;;26.77;36.76
34370;BME280;20635;55.812;37.560;2022-08-21T10:46:17;100247.69;;;26.79;37.64
34370;BME280;20635;55.812;37.560;2022-08-21T10:48:58;100249.69;;;26.78;37.36
34370;BME280;20635;55.812;37.560;2022-08-21T11:00:09;100222.72;;;26.77;36.45
34370;BME280;20635;55.812;37.560;2022-08-21T11:02:58;100247.38;;;26.80;36.49
34370;BME280;20635;55.812;37.560;2022-08-21T11:10:57;100230.53;;;26.80;36.27
34370;BME280;20635;55.812;37.560;2022-08-21T11:13:39;100222.91;;;26.81;36.70
34370;BME280;20635;55.812;37.560;2022-08-21T11:16:28;100222.38;;;26.79;35.73
34370;BME280;20635;55.812;37.560;2022-08-21T11:19:11;100226.88;;;26.80;35.37
34370;BME280;20635;55.812;37.560;2022-08-21T11:21:48;100221.25;;;26.80;35.60
34370;BME280;20635;55.812;37.560;2022-08-21T11:25:19;100217.28;;;26.81;35.33
34370;BME280;20635;55.812;37.560;2022-08-21T11:27:40;100210.50;;;26.82;35.83
34370;BME280;20635;55.812;37.560;2022-08-21T11:30:08;100204.38;;;26.80;35.93
34370;BME280;20635;55.812;37.560;2022-08-21T11:32:59;100229.34;;;26.81;35.82
34370;BME280;20635;55.812;37.560;2022-08-21T11:35:32;100217.59;;;26.79;35.46
34370;BME280;20635;55.812;37.560;2022-08-21T11:51:33;100228.38;;;26.86;35.70
34370;BME280;20635;55.812;37.560;2022-08-21T11:56:38;100225.72;;;26.81;34.68
34370;BME280;20635;55.812;37.560;2022-08-21T11:59:22;100218.09;;;26.81;34.27
34370;BME280;20635;55.812;37.560;2022-08-21T12:01:50;100220.41;;;26.79;33.96
34370;BME280;20635;55.812;37.560;2022-08-21T12:06:46;100230.34;;;26.77;34.50
34370;BME280;20635;55.812;37.560;2022-08-21T12:12:06;100208.03;;;26.80;33.89
34370;BME280;20635;55.812;37.560;2022-08-21T12:14:46;100217.94;;;26.78;33.88
34370;BME280;20635;55.812;37.560;2022-08-21T12:17:37;100200.72;;;26.79;34.07
34370;BME280;20635;55.812;37.560;2022-08-21T12:23:06;100196.44;;;26.82;34.03
34370;BME280;20635;55.812;37.560;2022-08-21T12:25:59;100201.56;;;26.80;34.02
34370;BME280;20635;55.812;37.560;2022-08-21T12:28:27;100199.41;;;26.77;33.80
34370;BME280;20635;55.812;37.560;2022-08-21T12:30:57;100203.38;;;26.76;33.88
34370;BME280;20635;55.812;37.560;2022-08-21T12:36:10;100199.41;;;26.77;33.80
34370;BME280;20635;55.812;37.560;2022-08-21T12:38:57;100196.59;;;26.77;33.88
34370;BME280;20635;55.812;37.560;2022-08-21T12:41:45;100199.41;;;26.77;33.83
34370;BME280;20635;55.812;37.560;2022-08-21T12:44:33;100201.41;;;26.76;33.50
34370;BME280;20635;55.812;37.560;2022-08-21T12:47:11;100194.78;;;26.72;33.42
34370;BME280;20635;55.812;37.560;2022-08-21T12:49:52;100214.63;;;26.76;33.73
34370;BME280;20635;55.812;37.560;2022-08-21T12:52:33;100198.91;;;26.75;33.93
34370;BME280;20635;55.812;37.560;2022-08-21T12:54:59;100193.97;;;26.72;34.28
34370;BME280;20635;55.812;37.560;2022-08-21T12:57:28;100203.22;;;26.72;34.46
34370;BME280;20635;55.812;37.560;2022-08-21T12:59:57;100189.97;;;26.73;34.28
34370;BME280;20635;55.812;37.560;2022-08-21T13:02:29;100205.69;;;26.74;34.53
34370;BME280;20635;55.812;37.560;2022-08-21T13:04:57;100193.63;;;26.73;34.28
34370;BME280;20635;55.812;37.560;2022-08-21T13:07:29;100185.69;;;26.75;34.68
34370;BME280;20635;55.812;37.560;2022-08-21T13:10:00;100192.16;;;26.76;34.51
34370;BME280;20635;55.812;37.560;2022-08-21T13:12:28;100195.78;;;26.76;34.71
34370;BME280;20635;55.812;37.560;2022-08-21T13:15:03;100187.00;;;26.78;34.83
34370;BME280;20635;55.812;37.560;2022-08-21T13:17:32;100192.97;;;26.76;34.57
34370;BME280;20635;55.812;37.560;2022-08-21T13:22:29;100184.84;;;26.75;34.15
34370;BME280;20635;55.812;37.560;2022-08-21T13:24:55;100179.56;;;26.73;34.26
34370;BME280;20635;55.812;37.560;2022-08-21T13:27:27;100192.44;;;26.74;34.03
34370;BME280;20635;55.812;37.560;2022-08-21T13:30:20;100180.56;;;26.77;34.10
34370;BME280;20635;55.812;37.560;2022-08-21T13:32:51;100183.19;;;26.74;34.43
34370;BME280;20635;55.812;37.560;2022-08-21T13:35:26;100188.81;;;26.74;34.29
34370;BME280;20635;55.812;37.560;2022-08-21T13:37:54;100179.56;;;26.73;34.26
34370;BME280;20635;55.812;37.560;2022-08-21T13:40:26;100170.31;;;26.73;34.53
34370;BME280;20635;55.812;37.560;2022-08-21T13:42:53;100165.34;;;26.70;34.39
34370;BME280;20635;55.812;37.560;2022-08-21T13:45:30;100169.81;;;26.71;34.22
34370;BME280;20635;55.812;37.560;2022-08-21T13:47:56;100176.56;;;26.70;34.17
34370;BME280;20635;55.812;37.560;2022-08-21T13:50:24;100174.94;;;26.69;34.42
34370;BME280;20635;55.812;37.560;2022-08-21T13:52:58;100175.44;;;26.71;34.27
34370;BME280;20635;55.812;37.560;2022-08-21T13:55:25;100182.53;;;26.68;34.23
34370;BME280;20635;55.812;37.560;2022-08-21T13:58:02;100170.97;;;26.70;34.71
34370;BME280;20635;55.812;37.560;2022-08-21T14:00:31;100172.94;;;26.69;34.58
34370;BME280;20635;55.812;37.560;2022-08-21T14:03:07;100166.31;;;26.74;34.74
34370;BME280;20635;55.812;37.560;2022-08-21T14:05:44;100171.78;;;26.70;34.95
34370;BME280;20635;55.812;37.560;2022-08-21T14:10:49;100161.38;;;26.71;34.71
34370;BME280;20635;55.812;37.560;2022-08-21T14:13:49;100161.03;;;26.72;35.03
34370;BME280;20635;55.812;37.560;2022-08-21T14:16:21;100159.22;;;26.68;34.90
34370;BME280;20635;55.812;37.560;2022-08-21T14:21:36;100153.78;;;26.71;35.30